sensor_id;sensor_type;location;lat;lon;timestamp;P1;durP1;ratioP1;P2;durP2;ratioP2
53299;SDS011;39187;48.476;8.310;2023-02-01T00:00:45;87.63;;;9.57;;
53299;SDS011;39187;48.476;8.310;2023-02-01T00:03:11;135.67;;;9.87;;
53299;SDS011;39187;48.476;8.310;2023-02-01T00:05:37;154.33;;;10.63;;
53299;SDS011;39187;48.476;8.310;2023-02-01T00:08:03;143.17;;;10.07;;
53299;SDS011;39187;48.476;8.310;2023-02-01T00:10:29;275.80;;;16.03;;
53299;SDS011;39187;48.476;8.310;2023-02-01T00:12:55;202.43;;;13.10;;
53299;SDS011;39187;48.476;8.310;2023-02-01T00:15:20;148.13;;;11.07;;
53299;SDS011;39187;48.476;8.310;2023-02-01T00:17:46;241.30;;;14.73;;
53299;SDS011;39187;48.476;8.310;2023-02-01T00:20:11;227.83;;;14.67;;
53299;SDS011;39187;48.476;8.310;2023-02-01T00:22:37;31.13;;;5.33;;
53299;SDS011;39187;48.476;8.310;2023-02-01T00:25:02;3.30;;;3.00;;
53299;SDS011;39187;48.476;8.310;2023-02-01T00:27:28;6.93;;;2.93;;
53299;SDS011;39187;48.476;8.310;2023-02-01T00:29:54;4.83;;;3.87;;
53299;SDS011;39187;48.476;8.310;2023-02-01T00:32:20;38.17;;;5.20;;
53299;SDS011;39187;48.476;8.310;2023-02-01T00:34:46;13.43;;;4.30;;
53299;SDS011;39187;48.476;8.310;2023-02-01T00:37:11;18.30;;;4.20;;
53299;SDS011;39187;48.476;8.310;2023-02-01T00:39:37;40.50;;;5.03;;
53299;SDS011;39187;48.476;8.310;2023-02-01T00:42:02;92.30;;;8.63;;
53299;SDS011;39187;48.476;8.310;2023-02-01T00:44:28;532.37;;;34.10;;
53299;SDS011;39187;48.476;8.310;2023-02-01T00:46:58;404.83;;;24.40;;
53299;SDS011;39187;48.476;8.310;2023-02-01T00:49:24;281.93;;;16.73;;
53299;SDS011;39187;48.476;8.310;2023-02-01T00:51:49;715.77;;;45.77;;
53299;SDS011;39187;48.476;8.310;2023-02-01T00:54:15;589.00;;;31.87;;
53299;SDS011;39187;48.476;8.310;2023-02-01T00:56:40;399.23;;;28.83;;
53299;SDS011;39187;48.476;8.310;2023-02-01T00:59:06;182.03;;;14.47;;
53299;SDS011;39187;48.476;8.310;2023-02-01T01:01:32;75.00;;;8.67;;
53299;SDS011;39187;48.476;8.310;2023-02-01T01:03:58;271.43;;;18.10;;
53299;SDS011;39187;48.476;8.310;2023-02-01T01:06:25;252.17;;;18.03;;
53299;SDS011;39187;48.476;8.310;2023-02-01T01:08:56;341.17;;;21.30;;
53299;SDS011;39187;48.476;8.310;2023-02-01T01:11:24;76.30;;;8.77;;
53299;SDS011;39187;48.476;8.310;2023-02-01T01:13:52;246.37;;;17.27;;
53299;SDS011;39187;48.476;8.310;2023-02-01T01:16:19;142.97;;;15.47;;
53299;SDS011;39187;48.476;8.310;2023-02-01T01:18:46;498.00;;;32.00;;
53299;SDS011;39187;48.476;8.310;2023-02-01T01:21:13;436.47;;;30.53;;
53299;SDS011;39187;48.476;8.310;2023-02-01T01:23:40;377.57;;;25.00;;
53299;SDS011;39187;48.476;8.310;2023-02-01T01:26:10;629.20;;;47.40;;
53299;SDS011;39187;48.476;8.310;2023-02-01T01:28:40;468.67;;;31.27;;
53299;SDS011;39187;48.476;8.310;2023-02-01T01:31:09;511.27;;;28.20;;
53299;SDS011;39187;48.476;8.310;2023-02-01T01:33:36;335.33;;;22.30;;
53299;SDS011;39187;48.476;8.310;2023-02-01T01:36:01;355.87;;;22.17;;
53299;SDS011;39187;48.476;8.310;2023-02-01T01:38:29;432.17;;;30.50;;
53299;SDS011;39187;48.476;8.310;2023-02-01T01:40:55;107.40;;;10.97;;
53299;SDS011;39187;48.476;8.310;2023-02-01T01:43:20;387.87;;;24.13;;
53299;SDS011;39187;48.476;8.310;2023-02-01T01:45:49;528.00;;;38.33;;
53299;SDS011;39187;48.476;8.310;2023-02-01T01:48:17;393.17;;;24.17;;
53299;SDS011;39187;48.476;8.310;2023-02-01T01:51:02;86.70;;;9.23;;
53299;SDS011;39187;48.476;8.310;2023-02-01T01:53:37;14.80;;;4.70;;
53299;SDS011;39187;48.476;8.310;2023-02-01T01:56:07;143.73;;;11.33;;
53299;SDS011;39187;48.476;8.310;2023-02-01T01:58:33;115.37;;;11.30;;
53299;SDS011;39187;48.476;8.310;2023-02-01T02:00:59;52.80;;;7.27;;
53299;SDS011;39187;48.476;8.310;2023-02-01T02:03:30;50.87;;;7.43;;
53299;SDS011;39187;48.476;8.310;2023-02-01T02:06:00;51.40;;;6.40;;
53299;SDS011;39187;48.476;8.310;2023-02-01T02:08:29;611.73;;;46.27;;
53299;SDS011;39187;48.476;8.310;2023-02-01T02:10:54;203.87;;;14.17;;
53299;SDS011;39187;48.476;8.310;2023-02-01T02:13:26;470.97;;;31.47;;
53299;SDS011;39187;48.476;8.310;2023-02-01T02:34:45;78.60;;;10.00;;
53299;SDS011;39187;48.476;8.310;2023-02-01T02:37:25;542.17;;;36.27;;
53299;SDS011;39187;48.476;8.310;2023-02-01T02:40:41;163.90;;;14.20;;
53299;SDS011;39187;48.476;8.310;2023-02-01T02:46:01;227.60;;;14.23;;
53299;SDS011;39187;48.476;8.310;2023-02-01T02:49:09;322.80;;;23.20;;
53299;SDS011;39187;48.476;8.310;2023-02-01T02:54:34;303.13;;;21.90;;
53299;SDS011;39187;48.476;8.310;2023-02-01T02:57:20;66.07;;;7.50;;
53299;SDS011;39187;48.476;8.310;2023-02-01T03:00:16;22.93;;;5.13;;
53299;SDS011;39187;48.476;8.310;2023-02-01T03:03:03;8.87;;;5.37;;
53299;SDS011;39187;48.476;8.310;2023-02-01T03:05:48;43.53;;;7.70;;
53299;SDS011;39187;48.476;8.310;2023-02-01T03:08:18;126.50;;;9.80;;
53299;SDS011;39187;48.476;8.310;2023-02-01T03:21:59;32.30;;;5.70;;
53299;SDS011;39187;48.476;8.310;2023-02-01T03:27:42;4.03;;;3.70;;
53299;SDS011;39187;48.476;8.310;2023-02-01T03:30:52;26.73;;;7.00;;
53299;SDS011;39187;48.476;8.310;2023-02-01T03:33:12;4.47;;;4.17;;
53299;SDS011;39187;48.476;8.310;2023-02-01T03:35:55;4.80;;;4.50;;
53299;SDS011;39187;48.476;8.310;2023-02-01T03:41:11;151.87;;;11.60;;
53299;SDS011;39187;48.476;8.310;2023-02-01T03:43:45;198.07;;;11.73;;
53299;SDS011;39187;48.476;8.310;2023-02-01T03:46:53;116.40;;;10.10;;
53299;SDS011;39187;48.476;8.310;2023-02-01T03:49:18;62.60;;;5.80;;
53299;SDS011;39187;48.476;8.310;2023-02-01T03:51:49;116.37;;;11.37;;
53299;SDS011;39187;48.476;8.310;2023-02-01T03:54:16;179.73;;;13.67;;
53299;SDS011;39187;48.476;8.310;2023-02-01T03:56:43;107.43;;;11.83;;
53299;SDS011;39187;48.476;8.310;2023-02-01T03:59:11;202.97;;;16.23;;
53299;SDS011;39187;48.476;8.310;2023-02-01T04:01:38;145.93;;;10.90;;
53299;SDS011;39187;48.476;8.310;2023-02-01T04:04:04;17.90;;;4.97;;
53299;SDS011;39187;48.476;8.310;2023-02-01T04:06:30;8.17;;;4.27;;
53299;SDS011;39187;48.476;8.310;2023-02-01T04:08:56;6.13;;;5.47;;
53299;SDS011;39187;48.476;8.310;2023-02-01T04:11:21;29.87;;;5.90;;
53299;SDS011;39187;48.476;8.310;2023-02-01T04:13:46;10.03;;;5.97;;
53299;SDS011;39187;48.476;8.310;2023-02-01T04:16:12;6.87;;;6.30;;
53299;SDS011;39187;48.476;8.310;2023-02-01T04:18:37;4.50;;;4.20;;
53299;SDS011;39187;48.476;8.310;2023-02-01T04:21:03;5.40;;;4.93;;
53299;SDS011;39187;48.476;8.310;2023-02-01T04:23:29;4.67;;;4.37;;
53299;SDS011;39187;48.476;8.310;2023-02-01T04:26:00;4.77;;;4.47;;
53299;SDS011;39187;48.476;8.310;2023-02-01T04:28:26;4.00;;;3.80;;
53299;SDS011;39187;48.476;8.310;2023-02-01T04:30:52;4.03;;;3.83;;
53299;SDS011;39187;48.476;8.310;2023-02-01T04:33:17;10.90;;;4.73;;
53299;SDS011;39187;48.476;8.310;2023-02-01T04:35:43;3.90;;;3.70;;
53299;SDS011;39187;48.476;8.310;2023-02-01T04:38:08;4.30;;;4.10;;
53299;SDS011;39187;48.476;8.310;2023-02-01T04:40:34;4.70;;;4.40;;
53299;SDS011;39187;48.476;8.310;2023-02-01T04:43:02;4.00;;;3.80;;
53299;SDS011;39187;48.476;8.310;2023-02-01T04:45:28;4.20;;;4.00;;
53299;SDS011;39187;48.476;8.310;2023-02-01T04:47:54;5.10;;;4.63;;
53299;SDS011;39187;48.476;8.310;2023-02-01T04:50:20;4.77;;;4.50;;
53299;SDS011;39187;48.476;8.310;2023-02-01T04:52:45;4.70;;;4.27;;
53299;SDS011;39187;48.476;8.310;2023-02-01T04:55:11;5.07;;;4.10;;
53299;SDS011;39187;48.476;8.310;2023-02-01T04:57:38;4.67;;;4.37;;
53299;SDS011;39187;48.476;8.310;2023-02-01T05:00:06;5.30;;;4.07;;
53299;SDS011;39187;48.476;8.310;2023-02-01T05:02:33;5.60;;;3.90;;
53299;SDS011;39187;48.476;8.310;2023-02-01T05:04:58;4.47;;;4.20;;
53299;SDS011;39187;48.476;8.310;2023-02-01T05:07:24;5.30;;;5.00;;
53299;SDS011;39187;48.476;8.310;2023-02-01T05:09:49;4.67;;;4.30;;
53299;SDS011;39187;48.476;8.310;2023-02-01T05:12:15;4.87;;;4.47;;
53299;SDS011;39187;48.476;8.310;2023-02-01T05:14:59;7.07;;;4.40;;
53299;SDS011;39187;48.476;8.310;2023-02-01T05:17:24;5.00;;;4.70;;
53299;SDS011;39187;48.476;8.310;2023-02-01T05:19:50;6.13;;;4.23;;
53299;SDS011;39187;48.476;8.310;2023-02-01T05:22:15;4.53;;;4.13;;
53299;SDS011;39187;48.476;8.310;2023-02-01T05:24:41;3.70;;;3.50;;
53299;SDS011;39187;48.476;8.310;2023-02-01T05:27:06;3.73;;;3.40;;
53299;SDS011;39187;48.476;8.310;2023-02-01T05:29:32;4.43;;;4.00;;
53299;SDS011;39187;48.476;8.310;2023-02-01T05:31:57;3.67;;;3.47;;
53299;SDS011;39187;48.476;8.310;2023-02-01T05:34:23;4.17;;;3.87;;
53299;SDS011;39187;48.476;8.310;2023-02-01T05:36:48;3.90;;;3.60;;
53299;SDS011;39187;48.476;8.310;2023-02-01T05:39:14;4.33;;;4.13;;
53299;SDS011;39187;48.476;8.310;2023-02-01T05:41:39;4.73;;;3.90;;
53299;SDS011;39187;48.476;8.310;2023-02-01T05:44:05;4.20;;;4.00;;
53299;SDS011;39187;48.476;8.310;2023-02-01T05:46:32;4.53;;;4.23;;
53299;SDS011;39187;48.476;8.310;2023-02-01T05:48:59;4.23;;;3.93;;
53299;SDS011;39187;48.476;8.310;2023-02-01T05:51:24;3.70;;;3.10;;
53299;SDS011;39187;48.476;8.310;2023-02-01T05:53:50;4.23;;;3.93;;
53299;SDS011;39187;48.476;8.310;2023-02-01T05:56:15;4.10;;;3.87;;
53299;SDS011;39187;48.476;8.310;2023-02-01T05:58:41;4.23;;;4.03;;
53299;SDS011;39187;48.476;8.310;2023-02-01T06:01:06;4.60;;;4.30;;
53299;SDS011;39187;48.476;8.310;2023-02-01T06:03:32;5.40;;;3.87;;
53299;SDS011;39187;48.476;8.310;2023-02-01T06:05:57;4.00;;;3.80;;
53299;SDS011;39187;48.476;8.310;2023-02-01T06:08:23;3.60;;;3.40;;
53299;SDS011;39187;48.476;8.310;2023-02-01T06:10:50;3.03;;;2.83;;
53299;SDS011;39187;48.476;8.310;2023-02-01T06:13:22;3.37;;;3.17;;
53299;SDS011;39187;48.476;8.310;2023-02-01T06:15:47;3.30;;;3.20;;
53299;SDS011;39187;48.476;8.310;2023-02-01T06:18:13;3.90;;;3.70;;
53299;SDS011;39187;48.476;8.310;2023-02-01T06:20:40;4.50;;;4.30;;
53299;SDS011;39187;48.476;8.310;2023-02-01T06:23:06;5.10;;;4.80;;
53299;SDS011;39187;48.476;8.310;2023-02-01T06:25:31;4.87;;;4.57;;
53299;SDS011;39187;48.476;8.310;2023-02-01T06:27:59;6.40;;;5.73;;
53299;SDS011;39187;48.476;8.310;2023-02-01T06:30:25;5.67;;;4.93;;
53299;SDS011;39187;48.476;8.310;2023-02-01T06:32:51;5.20;;;4.77;;
53299;SDS011;39187;48.476;8.310;2023-02-01T06:35:20;5.03;;;4.27;;
53299;SDS011;39187;48.476;8.310;2023-02-01T06:37:45;4.03;;;3.83;;
53299;SDS011;39187;48.476;8.310;2023-02-01T06:40:11;3.13;;;3.00;;
53299;SDS011;39187;48.476;8.310;2023-02-01T06:42:37;3.27;;;3.17;;
53299;SDS011;39187;48.476;8.310;2023-02-01T06:45:02;3.90;;;3.70;;
53299;SDS011;39187;48.476;8.310;2023-02-01T06:47:28;6.20;;;3.30;;
53299;SDS011;39187;48.476;8.310;2023-02-01T06:49:54;6.67;;;3.43;;
53299;SDS011;39187;48.476;8.310;2023-02-01T06:52:19;4.43;;;3.80;;
53299;SDS011;39187;48.476;8.310;2023-02-01T06:54:45;7.83;;;5.60;;
53299;SDS011;39187;48.476;8.310;2023-02-01T06:57:10;57.80;;;7.13;;
53299;SDS011;39187;48.476;8.310;2023-02-01T06:59:36;139.93;;;11.10;;
53299;SDS011;39187;48.476;8.310;2023-02-01T07:02:02;197.77;;;16.03;;
53299;SDS011;39187;48.476;8.310;2023-02-01T07:04:28;60.17;;;8.53;;
53299;SDS011;39187;48.476;8.310;2023-02-01T07:06:53;14.70;;;5.17;;
53299;SDS011;39187;48.476;8.310;2023-02-01T07:09:19;4.90;;;4.50;;
53299;SDS011;39187;48.476;8.310;2023-02-01T07:11:44;5.57;;;5.07;;
53299;SDS011;39187;48.476;8.310;2023-02-01T07:14:10;5.63;;;4.40;;
53299;SDS011;39187;48.476;8.310;2023-02-01T07:16:36;4.90;;;4.50;;
53299;SDS011;39187;48.476;8.310;2023-02-01T07:19:01;5.07;;;3.87;;
53299;SDS011;39187;48.476;8.310;2023-02-01T07:21:27;3.13;;;2.93;;
53299;SDS011;39187;48.476;8.310;2023-02-01T07:23:53;4.17;;;3.87;;
53299;SDS011;39187;48.476;8.310;2023-02-01T07:26:19;3.40;;;3.20;;
53299;SDS011;39187;48.476;8.310;2023-02-01T07:28:45;19.10;;;4.40;;
53299;SDS011;39187;48.476;8.310;2023-02-01T07:31:12;7.80;;;3.47;;
53299;SDS011;39187;48.476;8.310;2023-02-01T07:33:40;3.63;;;3.07;;
53299;SDS011;39187;48.476;8.310;2023-02-01T07:36:07;73.33;;;5.07;;
53299;SDS011;39187;48.476;8.310;2023-02-01T07:38:35;3.73;;;3.53;;
53299;SDS011;39187;48.476;8.310;2023-02-01T07:41:01;6.60;;;4.17;;
53299;SDS011;39187;48.476;8.310;2023-02-01T07:43:28;4.10;;;3.80;;
53299;SDS011;39187;48.476;8.310;2023-02-01T07:45:55;5.07;;;4.50;;
53299;SDS011;39187;48.476;8.310;2023-02-01T07:48:21;5.00;;;4.50;;
53299;SDS011;39187;48.476;8.310;2023-02-01T07:50:48;49.50;;;7.47;;
53299;SDS011;39187;48.476;8.310;2023-02-01T07:53:14;11.07;;;5.17;;
53299;SDS011;39187;48.476;8.310;2023-02-01T07:55:39;5.97;;;5.27;;
53299;SDS011;39187;48.476;8.310;2023-02-01T07:58:05;8.80;;;5.23;;
53299;SDS011;39187;48.476;8.310;2023-02-01T08:00:31;10.37;;;4.70;;
53299;SDS011;39187;48.476;8.310;2023-02-01T08:03:16;305.53;;;22.50;;
53299;SDS011;39187;48.476;8.310;2023-02-01T08:05:41;115.10;;;10.87;;
53299;SDS011;39187;48.476;8.310;2023-02-01T08:08:07;141.07;;;11.37;;
53299;SDS011;39187;48.476;8.310;2023-02-01T08:10:33;93.17;;;8.40;;
53299;SDS011;39187;48.476;8.310;2023-02-01T08:13:00;176.63;;;12.77;;
53299;SDS011;39187;48.476;8.310;2023-02-01T08:15:26;146.50;;;10.80;;
53299;SDS011;39187;48.476;8.310;2023-02-01T08:17:53;8.83;;;4.20;;
53299;SDS011;39187;48.476;8.310;2023-02-01T08:20:24;7.73;;;4.33;;
53299;SDS011;39187;48.476;8.310;2023-02-01T08:22:51;25.10;;;5.50;;
53299;SDS011;39187;48.476;8.310;2023-02-01T08:25:16;5.43;;;4.63;;
53299;SDS011;39187;48.476;8.310;2023-02-01T08:27:42;5.33;;;4.87;;
53299;SDS011;39187;48.476;8.310;2023-02-01T08:30:08;6.47;;;5.63;;
53299;SDS011;39187;48.476;8.310;2023-02-01T08:32:34;12.43;;;5.27;;
53299;SDS011;39187;48.476;8.310;2023-02-01T08:35:00;5.20;;;4.70;;
53299;SDS011;39187;48.476;8.310;2023-02-01T08:37:26;16.50;;;5.40;;
53299;SDS011;39187;48.476;8.310;2023-02-01T08:39:52;5.93;;;5.00;;
53299;SDS011;39187;48.476;8.310;2023-02-01T08:42:17;5.53;;;4.97;;
53299;SDS011;39187;48.476;8.310;2023-02-01T08:45:01;6.60;;;5.10;;
53299;SDS011;39187;48.476;8.310;2023-02-01T08:47:28;10.50;;;6.20;;
53299;SDS011;39187;48.476;8.310;2023-02-01T08:49:54;5.47;;;4.80;;
53299;SDS011;39187;48.476;8.310;2023-02-01T08:52:19;5.37;;;4.70;;
53299;SDS011;39187;48.476;8.310;2023-02-01T08:54:45;18.00;;;5.73;;
53299;SDS011;39187;48.476;8.310;2023-02-01T08:57:11;6.90;;;4.23;;
53299;SDS011;39187;48.476;8.310;2023-02-01T08:59:36;12.93;;;5.30;;
53299;SDS011;39187;48.476;8.310;2023-02-01T09:02:02;10.60;;;4.93;;
53299;SDS011;39187;48.476;8.310;2023-02-01T09:04:27;6.47;;;5.00;;
53299;SDS011;39187;48.476;8.310;2023-02-01T09:06:53;7.30;;;5.70;;
53299;SDS011;39187;48.476;8.310;2023-02-01T09:09:20;10.90;;;5.50;;
53299;SDS011;39187;48.476;8.310;2023-02-01T09:11:46;5.93;;;5.30;;
53299;SDS011;39187;48.476;8.310;2023-02-01T09:14:12;8.83;;;5.10;;
53299;SDS011;39187;48.476;8.310;2023-02-01T09:16:38;9.20;;;5.70;;
53299;SDS011;39187;48.476;8.310;2023-02-01T09:19:03;6.73;;;5.07;;
53299;SDS011;39187;48.476;8.310;2023-02-01T09:21:29;10.43;;;5.13;;
53299;SDS011;39187;48.476;8.310;2023-02-01T09:23:54;8.73;;;5.60;;
53299;SDS011;39187;48.476;8.310;2023-02-01T09:26:20;11.30;;;4.60;;
53299;SDS011;39187;48.476;8.310;2023-02-01T09:28:46;8.13;;;5.20;;
53299;SDS011;39187;48.476;8.310;2023-02-01T09:31:12;10.90;;;5.40;;
53299;SDS011;39187;48.476;8.310;2023-02-01T09:33:37;8.13;;;5.20;;
53299;SDS011;39187;48.476;8.310;2023-02-01T09:36:03;8.07;;;5.30;;
53299;SDS011;39187;48.476;8.310;2023-02-01T09:38:30;14.20;;;5.40;;
53299;SDS011;39187;48.476;8.310;2023-02-01T09:40:56;11.20;;;4.63;;
53299;SDS011;39187;48.476;8.310;2023-02-01T09:48:41;13.63;;;4.87;;
53299;SDS011;39187;48.476;8.310;2023-02-01T09:51:14;21.57;;;7.07;;
53299;SDS011;39187;48.476;8.310;2023-02-01T09:53:44;9.57;;;5.23;;
53299;SDS011;39187;48.476;8.310;2023-02-01T09:56:24;11.47;;;5.00;;
53299;SDS011;39187;48.476;8.310;2023-02-01T09:59:01;10.20;;;5.40;;
53299;SDS011;39187;48.476;8.310;2023-02-01T10:01:35;11.10;;;5.17;;
53299;SDS011;39187;48.476;8.310;2023-02-01T10:04:03;6.73;;;5.27;;
53299;SDS011;39187;48.476;8.310;2023-02-01T10:17:44;11.73;;;4.80;;
53299;SDS011;39187;48.476;8.310;2023-02-01T10:25:54;11.23;;;4.57;;
53299;SDS011;39187;48.476;8.310;2023-02-01T10:28:24;7.37;;;5.53;;
53299;SDS011;39187;48.476;8.310;2023-02-01T10:30:51;9.13;;;5.10;;
53299;SDS011;39187;48.476;8.310;2023-02-01T10:33:23;5.20;;;4.67;;
53299;SDS011;39187;48.476;8.310;2023-02-01T10:36:14;6.80;;;4.53;;
53299;SDS011;39187;48.476;8.310;2023-02-01T10:38:56;10.57;;;5.10;;
53299;SDS011;39187;48.476;8.310;2023-02-01T10:41:24;8.77;;;4.57;;
53299;SDS011;39187;48.476;8.310;2023-02-01T10:44:05;6.07;;;4.90;;
53299;SDS011;39187;48.476;8.310;2023-02-01T10:46:36;13.40;;;4.90;;
53299;SDS011;39187;48.476;8.310;2023-02-01T10:49:03;12.03;;;4.50;;
53299;SDS011;39187;48.476;8.310;2023-02-01T10:54:33;6.13;;;4.50;;
53299;SDS011;39187;48.476;8.310;2023-02-01T10:57:01;5.87;;;4.50;;
53299;SDS011;39187;48.476;8.310;2023-02-01T10:59:27;6.13;;;4.13;;
53299;SDS011;39187;48.476;8.310;2023-02-01T11:02:01;11.43;;;4.70;;
53299;SDS011;39187;48.476;8.310;2023-02-01T11:04:36;11.80;;;4.87;;
53299;SDS011;39187;48.476;8.310;2023-02-01T11:07:13;5.20;;;4.70;;
53299;SDS011;39187;48.476;8.310;2023-02-01T11:09:51;13.13;;;4.80;;
53299;SDS011;39187;48.476;8.310;2023-02-01T11:12:41;13.20;;;5.40;;
53299;SDS011;39187;48.476;8.310;2023-02-01T11:15:13;18.20;;;5.20;;
53299;SDS011;39187;48.476;8.310;2023-02-01T11:17:47;8.70;;;4.20;;
53299;SDS011;39187;48.476;8.310;2023-02-01T11:20:38;23.13;;;5.10;;
53299;SDS011;39187;48.476;8.310;2023-02-01T11:23:13;6.63;;;4.17;;
53299;SDS011;39187;48.476;8.310;2023-02-01T11:26:10;10.13;;;4.40;;
53299;SDS011;39187;48.476;8.310;2023-02-01T11:28:35;12.57;;;4.47;;
53299;SDS011;39187;48.476;8.310;2023-02-01T11:31:09;14.40;;;4.27;;
53299;SDS011;39187;48.476;8.310;2023-02-01T11:33:38;11.60;;;5.10;;
53299;SDS011;39187;48.476;8.310;2023-02-01T11:36:09;10.13;;;3.93;;
53299;SDS011;39187;48.476;8.310;2023-02-01T11:38:38;20.77;;;4.27;;
53299;SDS011;39187;48.476;8.310;2023-02-01T11:41:14;8.53;;;5.40;;
53299;SDS011;39187;48.476;8.310;2023-02-01T11:43:59;13.10;;;4.10;;
53299;SDS011;39187;48.476;8.310;2023-02-01T11:46:30;8.60;;;4.03;;
53299;SDS011;39187;48.476;8.310;2023-02-01T11:48:57;10.80;;;5.30;;
53299;SDS011;39187;48.476;8.310;2023-02-01T11:51:50;10.27;;;4.90;;
53299;SDS011;39187;48.476;8.310;2023-02-01T11:54:21;8.20;;;3.50;;
53299;SDS011;39187;48.476;8.310;2023-02-01T11:57:04;16.13;;;3.97;;
53299;SDS011;39187;48.476;8.310;2023-02-01T12:02:22;7.30;;;3.73;;
53299;SDS011;39187;48.476;8.310;2023-02-01T12:19:52;10.80;;;4.70;;
53299;SDS011;39187;48.476;8.310;2023-02-01T12:25:14;5.03;;;3.87;;
53299;SDS011;39187;48.476;8.310;2023-02-01T12:46:59;7.30;;;4.43;;
53299;SDS011;39187;48.476;8.310;2023-02-01T12:49:34;13.13;;;6.27;;
53299;SDS011;39187;48.476;8.310;2023-02-01T12:55:41;11.30;;;4.77;;
53299;SDS011;39187;48.476;8.310;2023-02-01T13:01:02;17.10;;;6.00;;
53299;SDS011;39187;48.476;8.310;2023-02-01T13:06:19;9.23;;;4.97;;
53299;SDS011;39187;48.476;8.310;2023-02-01T13:11:50;9.00;;;5.07;;
53299;SDS011;39187;48.476;8.310;2023-02-01T13:17:10;29.07;;;5.30;;
53299;SDS011;39187;48.476;8.310;2023-02-01T13:19:45;6.20;;;4.40;;
53299;SDS011;39187;48.476;8.310;2023-02-01T13:22:31;8.70;;;5.67;;
53299;SDS011;39187;48.476;8.310;2023-02-01T13:25:04;7.37;;;5.10;;
53299;SDS011;39187;48.476;8.310;2023-02-01T13:27:41;12.93;;;4.53;;
53299;SDS011;39187;48.476;8.310;2023-02-01T13:39:05;17.33;;;5.70;;
53299;SDS011;39187;48.476;8.310;2023-02-01T13:41:41;12.10;;;5.00;;
53299;SDS011;39187;48.476;8.310;2023-02-01T13:44:23;19.30;;;4.77;;
53299;SDS011;39187;48.476;8.310;2023-02-01T13:46:54;10.63;;;4.20;;
53299;SDS011;39187;48.476;8.310;2023-02-01T13:49:25;7.73;;;5.20;;
53299;SDS011;39187;48.476;8.310;2023-02-01T13:51:54;11.77;;;5.13;;
53299;SDS011;39187;48.476;8.310;2023-02-01T13:57:01;13.53;;;5.47;;
53299;SDS011;39187;48.476;8.310;2023-02-01T13:59:50;11.50;;;5.23;;
53299;SDS011;39187;48.476;8.310;2023-02-01T14:05:04;20.90;;;6.30;;
53299;SDS011;39187;48.476;8.310;2023-02-01T14:07:33;10.27;;;4.97;;
53299;SDS011;39187;48.476;8.310;2023-02-01T14:09:58;5.93;;;3.67;;
53299;SDS011;39187;48.476;8.310;2023-02-01T14:13:12;8.50;;;5.00;;
53299;SDS011;39187;48.476;8.310;2023-02-01T14:15:39;11.23;;;5.17;;
53299;SDS011;39187;48.476;8.310;2023-02-01T14:21:21;9.50;;;4.80;;
53299;SDS011;39187;48.476;8.310;2023-02-01T14:23:56;10.43;;;4.23;;
53299;SDS011;39187;48.476;8.310;2023-02-01T14:29:09;6.10;;;4.30;;
53299;SDS011;39187;48.476;8.310;2023-02-01T14:31:44;24.63;;;5.50;;
53299;SDS011;39187;48.476;8.310;2023-02-01T14:42:19;14.77;;;4.90;;
53299;SDS011;39187;48.476;8.310;2023-02-01T14:44:48;11.53;;;4.87;;
53299;SDS011;39187;48.476;8.310;2023-02-01T14:52:20;12.13;;;4.30;;
53299;SDS011;39187;48.476;8.310;2023-02-01T14:54:54;10.23;;;4.13;;
53299;SDS011;39187;48.476;8.310;2023-02-01T14:57:35;10.17;;;4.40;;
53299;SDS011;39187;48.476;8.310;2023-02-01T15:00:27;13.43;;;4.07;;
53299;SDS011;39187;48.476;8.310;2023-02-01T15:02:54;18.93;;;5.07;;
53299;SDS011;39187;48.476;8.310;2023-02-01T15:07:49;11.70;;;5.07;;
53299;SDS011;39187;48.476;8.310;2023-02-01T15:10:17;9.03;;;3.57;;
53299;SDS011;39187;48.476;8.310;2023-02-01T15:12:44;15.50;;;4.70;;
53299;SDS011;39187;48.476;8.310;2023-02-01T15:17:51;23.83;;;5.00;;
53299;SDS011;39187;48.476;8.310;2023-02-01T15:20:22;11.27;;;4.23;;
53299;SDS011;39187;48.476;8.310;2023-02-01T15:22:59;16.53;;;4.87;;
53299;SDS011;39187;48.476;8.310;2023-02-01T15:25:28;17.80;;;4.47;;
53299;SDS011;39187;48.476;8.310;2023-02-01T15:27:55;24.87;;;4.67;;
53299;SDS011;39187;48.476;8.310;2023-02-01T15:32:49;11.90;;;4.53;;
53299;SDS011;39187;48.476;8.310;2023-02-01T15:35:38;17.13;;;4.70;;
53299;SDS011;39187;48.476;8.310;2023-02-01T15:41:08;13.43;;;5.20;;
53299;SDS011;39187;48.476;8.310;2023-02-01T15:46:09;10.60;;;4.30;;
53299;SDS011;39187;48.476;8.310;2023-02-01T15:48:38;10.70;;;5.10;;
53299;SDS011;39187;48.476;8.310;2023-02-01T15:51:13;14.67;;;4.80;;
53299;SDS011;39187;48.476;8.310;2023-02-01T15:56:27;15.73;;;4.23;;
53299;SDS011;39187;48.476;8.310;2023-02-01T15:58:59;11.53;;;4.73;;
53299;SDS011;39187;48.476;8.310;2023-02-01T16:01:26;18.97;;;4.10;;
53299;SDS011;39187;48.476;8.310;2023-02-01T16:06:44;15.93;;;4.60;;
53299;SDS011;39187;48.476;8.310;2023-02-01T16:09:13;18.37;;;4.77;;
53299;SDS011;39187;48.476;8.310;2023-02-01T16:11:52;15.40;;;4.83;;
53299;SDS011;39187;48.476;8.310;2023-02-01T16:14:20;17.10;;;4.90;;
53299;SDS011;39187;48.476;8.310;2023-02-01T16:16:46;13.10;;;4.53;;
53299;SDS011;39187;48.476;8.310;2023-02-01T16:19:11;15.03;;;4.03;;
53299;SDS011;39187;48.476;8.310;2023-02-01T16:21:37;11.10;;;4.20;;
53299;SDS011;39187;48.476;8.310;2023-02-01T16:24:03;15.97;;;4.00;;
53299;SDS011;39187;48.476;8.310;2023-02-01T16:26:29;28.17;;;5.20;;
53299;SDS011;39187;48.476;8.310;2023-02-01T16:28:56;7.60;;;4.20;;
53299;SDS011;39187;48.476;8.310;2023-02-01T16:31:25;13.50;;;6.00;;
53299;SDS011;39187;48.476;8.310;2023-02-01T16:33:54;10.40;;;4.03;;
53299;SDS011;39187;48.476;8.310;2023-02-01T16:36:19;16.47;;;4.40;;
53299;SDS011;39187;48.476;8.310;2023-02-01T16:38:46;4.83;;;4.20;;
53299;SDS011;39187;48.476;8.310;2023-02-01T16:41:14;10.90;;;5.20;;
53299;SDS011;39187;48.476;8.310;2023-02-01T16:43:41;6.70;;;4.43;;
53299;SDS011;39187;48.476;8.310;2023-02-01T16:46:11;9.03;;;4.40;;
53299;SDS011;39187;48.476;8.310;2023-02-01T16:48:40;8.60;;;4.50;;
53299;SDS011;39187;48.476;8.310;2023-02-01T16:51:10;9.53;;;5.57;;
53299;SDS011;39187;48.476;8.310;2023-02-01T16:53:38;28.77;;;5.47;;
53299;SDS011;39187;48.476;8.310;2023-02-01T16:56:09;14.03;;;5.13;;
53299;SDS011;39187;48.476;8.310;2023-02-01T16:58:38;15.47;;;5.50;;
53299;SDS011;39187;48.476;8.310;2023-02-01T17:01:06;22.97;;;5.60;;
53299;SDS011;39187;48.476;8.310;2023-02-01T17:03:31;19.83;;;4.93;;
53299;SDS011;39187;48.476;8.310;2023-02-01T17:05:57;11.00;;;6.00;;
53299;SDS011;39187;48.476;8.310;2023-02-01T17:08:30;8.10;;;4.70;;
53299;SDS011;39187;48.476;8.310;2023-02-01T17:10:57;11.90;;;4.70;;
53299;SDS011;39187;48.476;8.310;2023-02-01T17:13:23;19.80;;;4.70;;
53299;SDS011;39187;48.476;8.310;2023-02-01T17:15:50;12.20;;;4.40;;
53299;SDS011;39187;48.476;8.310;2023-02-01T17:18:20;15.10;;;7.00;;
53299;SDS011;39187;48.476;8.310;2023-02-01T17:20:46;10.93;;;4.73;;
53299;SDS011;39187;48.476;8.310;2023-02-01T17:23:13;9.43;;;4.97;;
53299;SDS011;39187;48.476;8.310;2023-02-01T17:25:39;21.60;;;4.90;;
53299;SDS011;39187;48.476;8.310;2023-02-01T17:28:06;17.47;;;5.83;;
53299;SDS011;39187;48.476;8.310;2023-02-01T17:30:32;16.30;;;4.40;;
53299;SDS011;39187;48.476;8.310;2023-02-01T17:32:57;17.73;;;6.50;;
53299;SDS011;39187;48.476;8.310;2023-02-01T17:35:24;14.83;;;4.23;;
53299;SDS011;39187;48.476;8.310;2023-02-01T17:37:51;15.93;;;4.83;;
53299;SDS011;39187;48.476;8.310;2023-02-01T17:40:18;16.40;;;5.43;;
53299;SDS011;39187;48.476;8.310;2023-02-01T17:42:43;11.17;;;3.97;;